Time;durP1;ratioP1;P1;durP2;ratioP2;P2;SDS_P1;SDS_P2;PMS_P1;PMS_P2;Temp;Humidity;BMP_temperature;BMP_pressure;BME280_temperature;BME280_humidity;BME280_pressure;Samples;Min_cycle;Max_cycle;Signal;HPM_P1;HPM_P2
2021/08/30 00:00:16;;;;;;;29.38;22.20;;;17.30;99.90;;;;;;2631174;47;20159;-77
2021/08/30 00:02:47;;;;;;;24.00;21.55;;;17.20;99.90;;;;;;2631112;47;20147;-78
2021/08/30 00:05:16;;;;;;;26.23;22.70;;;17.20;99.90;;;;;;2631086;47;20160;-79
2021/08/30 00:07:45;;;;;;;26.67;24.15;;;17.40;99.90;;;;;;2631212;46;20142;-78
2021/08/30 00:10:14;;;;;;;25.10;21.10;;;17.50;99.90;;;;;;2631230;54;20161;-78
2021/08/30 00:12:43;;;;;;;23.52;20.52;;;17.40;99.90;;;;;;2631163;47;20141;-78
2021/08/30 00:15:13;;;;;;;25.88;23.27;;;17.20;99.90;;;;;;2631092;54;20197;-77
2021/08/30 00:17:42;;;;;;;25.30;22.83;;;17.30;99.90;;;;;;2631184;54;20197;-79
2021/08/30 00:20:17;;;;;;;24.60;22.13;;;17.30;99.90;;;;;;2630972;54;20169;-78
2021/08/30 00:22:47;;;;;;;26.05;23.35;;;17.30;99.90;;;;;;2630927;47;20140;-78
2021/08/30 00:25:16;;;;;;;27.77;23.25;;;17.20;99.90;;;;;;2630964;47;20176;-79
2021/08/30 00:27:45;;;;;;;24.60;22.20;;;17.30;99.90;;;;;;2638377;31;20868;-77
2021/08/30 00:30:15;;;;;;;26.08;23.17;;;17.30;99.90;;;;;;2631093;54;20169;-78
2021/08/30 00:32:43;;;;;;;26.27;23.55;;;17.30;99.90;;;;;;2631155;54;20141;-78
2021/08/30 00:35:15;;;;;;;26.48;23.65;;;17.30;99.90;;;;;;2630989;47;20148;-78
2021/08/30 00:37:45;;;;;;;25.80;23.23;;;17.20;99.90;;;;;;2631136;54;20130;-76
2021/08/30 00:40:16;;;;;;;24.88;22.20;;;17.30;99.90;;;;;;2631157;47;20169;-77
2021/08/30 00:42:45;;;;;;;24.08;21.67;;;17.10;99.90;;;;;;2631211;46;20153;-78
2021/08/30 00:45:15;;;;;;;27.00;24.33;;;17.10;99.90;;;;;;2630965;46;20984;-77
2021/08/30 00:47:46;;;;;;;25.80;23.17;;;17.20;99.90;;;;;;2631158;54;20152;-79
2021/08/30 00:50:18;;;;;;;30.00;23.95;;;17.40;99.90;;;;;;2631163;47;20203;-78
2021/08/30 00:52:47;;;;;;;26.80;23.02;;;17.30;99.90;;;;;;2631079;46;20140;-78
2021/08/30 00:55:18;;;;;;;29.45;24.35;;;17.20;99.90;;;;;;2630954;47;20190;-78
2021/08/30 00:57:47;;;;;;;25.70;23.08;;;17.30;99.90;;;;;;2630930;47;20145;-78
2021/08/30 01:00:17;;;;;;;31.85;24.25;;;17.30;99.90;;;;;;2631538;39;20874;-78
2021/08/30 01:02:46;;;;;;;28.73;23.25;;;17.30;99.90;;;;;;2631051;54;20193;-77
2021/08/30 01:05:19;;;;;;;25.90;22.60;;;17.30;99.90;;;;;;2630957;47;20137;-78
2021/08/30 01:08:10;;;;;;;28.10;24.52;;;17.20;99.90;;;;;;2631113;47;20130;-78
2021/08/30 01:10:51;;;;;;;32.65;23.15;;;17.10;99.90;;;;;;2631100;47;20217;-78
2021/08/30 01:13:27;;;;;;;27.50;23.40;;;17.10;99.90;;;;;;2646439;39;20781;-77
2021/08/30 01:15:58;;;;;;;26.15;23.27;;;17.20;99.90;;;;;;2630818;54;20121;-77
2021/08/30 01:18:30;;;;;;;26.02;23.33;;;17.30;99.90;;;;;;2630965;47;20882;-77
2021/08/30 01:21:11;;;;;;;26.75;23.95;;;17.10;99.90;;;;;;2631120;47;20145;-76
2021/08/30 01:23:42;;;;;;;28.70;25.60;;;17.30;99.90;;;;;;2631177;46;20160;-78
2021/08/30 01:26:14;;;;;;;26.17;23.35;;;17.20;99.90;;;;;;2634463;39;20951;-77
2021/08/30 01:28:47;;;;;;;27.02;24.23;;;17.10;99.90;;;;;;2630962;47;20161;-77
2021/08/30 01:31:24;;;;;;;27.42;22.88;;;17.10;99.90;;;;;;2639906;39;20847;-78
2021/08/30 01:33:55;;;;;;;27.25;21.92;;;17.10;99.90;;;;;;2631029;47;20255;-79
2021/08/30 01:36:24;;;;;;;26.27;22.85;;;17.10;99.90;;;;;;2630836;54;20156;-77
2021/08/30 01:38:58;;;;;;;27.02;24.08;;;17.10;99.90;;;;;;2630887;47;20228;-79
2021/08/30 01:41:29;;;;;;;30.83;26.42;;;17.20;99.90;;;;;;2631068;47;20145;-78
2021/08/30 01:43:59;;;;;;;29.42;26.50;;;17.40;99.90;;;;;;2630950;47;20916;-78
2021/08/30 01:46:29;;;;;;;26.13;22.83;;;17.40;99.90;;;;;;2632737;46;20149;-77
2021/08/30 01:49:01;;;;;;;28.75;25.15;;;17.20;99.90;;;;;;2630612;54;20169;-78
2021/08/30 01:51:31;;;;;;;31.02;27.73;;;17.30;99.90;;;;;;2630973;47;20148;-77
2021/08/30 01:54:00;;;;;;;27.08;24.27;;;17.30;99.90;;;;;;2630841;54;20205;-79
2021/08/30 01:56:31;;;;;;;27.02;24.27;;;17.20;99.90;;;;;;2630626;54;20158;-79
2021/08/30 02:01:43;;;;;;;28.45;25.42;;;17.20;99.90;;;;;;2630780;46;20201;-78
2021/08/30 02:04:15;;;;;;;27.38;24.48;;;17.20;99.90;;;;;;2638757;39;20754;-78
2021/08/30 02:06:43;;;;;;;27.83;24.98;;;17.30;99.90;;;;;;2632788;39;20935;-77
2021/08/30 02:09:12;;;;;;;27.10;24.20;;;17.20;99.90;;;;;;2630837;47;20161;-78
2021/08/30 02:11:41;;;;;;;28.52;25.65;;;17.10;99.90;;;;;;2630812;47;20909;-78
2021/08/30 02:14:10;;;;;;;30.05;26.85;;;17.20;99.90;;;;;;2630857;47;20181;-78
2021/08/30 02:16:39;;;;;;;27.80;24.95;;;17.20;99.90;;;;;;2638128;39;20857;-78
2021/08/30 02:19:20;;;;;;;28.88;25.63;;;17.10;99.90;;;;;;2630783;47;20155;-78
2021/08/30 02:21:55;;;;;;;32.17;26.08;;;17.10;99.90;;;;;;2630839;54;20155;-78
2021/08/30 02:24:32;;;;;;;31.42;25.58;;;17.10;99.90;;;;;;2630601;54;20157;-77
2021/08/30 02:27:05;;;;;;;28.63;25.75;;;17.10;99.90;;;;;;2630610;47;20940;-78
2021/08/30 02:29:46;;;;;;;32.03;26.52;;;17.20;99.90;;;;;;2630728;47;20872;-78
2021/08/30 02:32:16;;;;;;;28.10;25.33;;;17.30;99.90;;;;;;2630789;54;20152;-77
2021/08/30 02:34:52;;;;;;;28.48;25.48;;;17.20;99.90;;;;;;2630615;54;20134;-78
2021/08/30 02:37:23;;;;;;;28.10;23.98;;;17.10;99.90;;;;;;2630695;54;20133;-78
2021/08/30 02:39:53;;;;;;;28.13;25.20;;;17.00;99.90;;;;;;2630889;47;20149;-77
2021/08/30 02:42:23;;;;;;;27.63;24.70;;;16.90;99.90;;;;;;2630540;47;20145;-79
2021/08/30 02:44:52;;;;;;;28.73;25.67;;;17.10;99.90;;;;;;2630583;47;20130;-78
2021/08/30 02:47:22;;;;;;;28.92;25.80;;;17.20;99.90;;;;;;2631227;47;20145;-79
2021/08/30 02:49:55;;;;;;;27.77;24.90;;;17.20;99.90;;;;;;2633327;31;20946;-79
2021/08/30 02:52:26;;;;;;;28.05;25.17;;;17.30;99.90;;;;;;2631565;54;20867;-78
2021/08/30 02:54:55;;;;;;;30.85;25.42;;;17.30;99.90;;;;;;2631324;47;20149;-78
2021/08/30 02:57:25;;;;;;;28.77;25.73;;;17.10;99.90;;;;;;2631208;54;20149;-79
2021/08/30 02:59:55;;;;;;;28.80;25.50;;;17.10;99.90;;;;;;2631329;54;20157;-78
2021/08/30 03:02:24;;;;;;;28.80;25.88;;;17.30;99.90;;;;;;2631553;46;20130;-79
2021/08/30 03:04:58;;;;;;;25.95;23.35;;;17.20;99.90;;;;;;2631120;47;20202;-79
2021/08/30 03:07:30;;;;;;;29.83;26.90;;;17.30;99.90;;;;;;2635249;39;20750;-79
2021/08/30 03:10:00;;;;;;;32.00;26.90;;;17.50;99.90;;;;;;2631485;54;20147;-77
2021/08/30 03:12:31;;;;;;;29.60;25.73;;;17.30;99.90;;;;;;2631471;54;20153;-79
2021/08/30 03:15:04;;;;;;;29.05;25.95;;;17.20;99.90;;;;;;2631344;54;20134;-79
2021/08/30 03:17:34;;;;;;;30.83;27.50;;;17.20;99.90;;;;;;2631298;54;20201;-79
2021/08/30 03:20:06;;;;;;;30.45;26.63;;;17.20;99.90;;;;;;2631395;54;20142;-78
2021/08/30 03:22:37;;;;;;;28.15;25.08;;;17.20;99.90;;;;;;2631487;46;20893;-78
2021/08/30 03:25:13;;;;;;;28.67;25.70;;;17.20;99.90;;;;;;2631370;46;20210;-77
2021/08/30 03:27:43;;;;;;;28.88;25.90;;;17.00;99.90;;;;;;2631334;54;20153;-78
2021/08/30 03:30:14;;;;;;;30.33;27.25;;;17.10;99.90;;;;;;2631164;46;20180;-78
2021/08/30 03:32:45;;;;;;;27.10;24.50;;;17.20;99.90;;;;;;2632179;39;20722;-77
2021/08/30 03:35:18;;;;;;;28.05;24.13;;;17.10;99.90;;;;;;2632150;39;20674;-77
2021/08/30 03:37:48;;;;;;;29.83;26.58;;;17.20;99.90;;;;;;2631308;54;20149;-77
2021/08/30 03:40:18;;;;;;;27.45;24.75;;;17.20;99.90;;;;;;2631292;47;20172;-77
2021/08/30 03:42:50;;;;;;;25.23;22.60;;;17.00;99.90;;;;;;2633150;46;20165;-78
2021/08/30 03:45:20;;;;;;;28.58;25.52;;;17.10;99.90;;;;;;2631115;47;20146;-79
2021/08/30 03:47:49;;;;;;;29.25;26.23;;;17.20;99.90;;;;;;2631357;54;20133;-79
2021/08/30 03:50:21;;;;;;;29.88;26.80;;;17.20;99.90;;;;;;2631049;54;20213;-78
2021/08/30 03:52:50;;;;;;;27.25;24.40;;;17.10;99.90;;;;;;2631289;54;20134;-78
2021/08/30 03:55:19;;;;;;;25.38;22.90;;;17.00;99.90;;;;;;2631188;54;20149;-78
2021/08/30 03:57:50;;;;;;;26.25;23.50;;;17.00;99.90;;;;;;2630853;54;20141;-77
2021/08/30 04:00:19;;;;;;;29.52;26.40;;;17.00;99.90;;;;;;2631288;47;20204;-78
2021/08/30 04:02:50;;;;;;;27.85;24.80;;;17.20;99.90;;;;;;2637260;39;20832;-79
2021/08/30 04:05:24;;;;;;;29.35;25.25;;;17.30;99.90;;;;;;2631123;54;20133;-78
2021/08/30 04:07:53;;;;;;;28.27;25.17;;;17.30;99.90;;;;;;2636217;39;20791;-79
2021/08/30 04:10:23;;;;;;;28.52;25.60;;;17.10;99.90;;;;;;2629663;46;20171;-79
2021/08/30 04:12:52;;;;;;;29.27;25.85;;;17.10;99.90;;;;;;2631201;54;20158;-79
2021/08/30 04:15:21;;;;;;;27.52;24.70;;;17.20;99.90;;;;;;2631188;46;20126;-78
2021/08/30 04:17:50;;;;;;;29.00;25.70;;;17.10;99.90;;;;;;2631178;54;20129;-78
2021/08/30 04:20:22;;;;;;;26.27;23.60;;;17.10;99.90;;;;;;2639808;39;20751;-78
2021/08/30 04:22:50;;;;;;;29.15;26.08;;;17.10;99.90;;;;;;2631113;47;20140;-77
2021/08/30 04:25:19;;;;;;;29.13;26.08;;;17.00;99.90;;;;;;2630761;47;20881;-78
2021/08/30 04:27:48;;;;;;;33.03;26.33;;;17.20;99.90;;;;;;2631188;46;20141;-77
2021/08/30 04:30:17;;;;;;;31.60;25.48;;;17.30;99.90;;;;;;2631227;54;20142;-78
2021/08/30 04:32:45;;;;;;;29.67;26.58;;;17.10;99.90;;;;;;2640602;39;20911;-78
2021/08/30 04:35:14;;;;;;;31.98;27.55;;;17.10;99.90;;;;;;2630888;47;20145;-78
2021/08/30 04:37:45;;;;;;;27.92;24.98;;;17.20;99.90;;;;;;2631166;54;20140;-79
2021/08/30 04:40:15;;;;;;;28.63;25.70;;;17.10;99.90;;;;;;2631124;47;20173;-79
2021/08/30 04:42:44;;;;;;;29.08;25.92;;;17.10;99.90;;;;;;2631101;47;20129;-78
2021/08/30 04:45:13;;;;;;;32.45;29.05;;;17.20;99.90;;;;;;2630763;54;20185;-78
2021/08/30 04:47:42;;;;;;;32.15;28.27;;;17.20;99.90;;;;;;2631093;54;20129;-78
2021/08/30 04:50:12;;;;;;;32.15;28.75;;;17.10;99.90;;;;;;2639049;39;20783;-78
2021/08/30 04:52:41;;;;;;;31.17;27.52;;;17.10;99.90;;;;;;2630942;47;20153;-78
2021/08/30 04:55:14;;;;;;;32.65;29.15;;;17.20;99.90;;;;;;2635505;39;20859;-78
2021/08/30 04:57:43;;;;;;;33.60;28.15;;;17.20;99.90;;;;;;2631084;54;21143;-77
2021/08/30 05:00:13;;;;;;;39.13;28.33;;;17.10;99.90;;;;;;2630977;54;20168;-77
2021/08/30 05:02:42;;;;;;;31.42;27.92;;;17.00;99.90;;;;;;2631120;46;20145;-77
2021/08/30 05:05:11;;;;;;;34.40;30.77;;;17.10;99.90;;;;;;2633732;39;20788;-78
2021/08/30 05:07:40;;;;;;;32.67;26.98;;;17.10;99.90;;;;;;2631027;47;20144;-78
2021/08/30 05:10:13;;;;;;;31.92;27.42;;;17.20;99.90;;;;;;2630901;54;20189;-77
2021/08/30 05:12:42;;;;;;;32.78;29.38;;;17.20;99.90;;;;;;2631183;46;20141;-77
2021/08/30 05:15:11;;;;;;;34.42;30.25;;;17.10;99.90;;;;;;2630857;54;20156;-76
2021/08/30 05:17:40;;;;;;;32.45;28.85;;;17.30;99.90;;;;;;2631009;54;20158;-78
2021/08/30 05:20:10;;;;;;;34.63;30.08;;;17.20;99.90;;;;;;2631028;47;20184;-78
2021/08/30 05:22:38;;;;;;;31.50;27.98;;;17.10;99.90;;;;;;2631138;47;20271;-78
2021/08/30 05:25:08;;;;;;;38.28;30.98;;;17.00;99.90;;;;;;2630552;47;20145;-78
2021/08/30 05:27:41;;;;;;;36.83;28.63;;;17.10;99.90;;;;;;2631048;47;20949;-77
2021/08/30 05:30:10;;;;;;;32.92;29.45;;;17.20;99.90;;;;;;2630999;54;20229;-77
2021/08/30 05:32:39;;;;;;;31.90;27.50;;;17.20;99.90;;;;;;2630991;47;20241;-78
2021/08/30 05:35:08;;;;;;;29.42;26.35;;;17.10;99.90;;;;;;2630669;47;20155;-78
2021/08/30 05:37:38;;;;;;;29.23;25.83;;;17.00;99.90;;;;;;2630918;47;20145;-76
2021/08/30 05:40:09;;;;;;;31.40;28.02;;;17.20;99.90;;;;;;2630113;54;20141;-77
2021/08/30 05:42:41;;;;;;;31.63;28.45;;;17.30;99.90;;;;;;2630794;54;20152;-78
2021/08/30 05:45:11;;;;;;;29.67;26.23;;;17.30;99.90;;;;;;2630860;47;20189;-78
2021/08/30 05:47:41;;;;;;;32.35;27.58;;;17.30;99.90;;;;;;2627152;54;20680;-76
2021/08/30 05:50:12;;;;;;;29.95;26.95;;;17.20;99.90;;;;;;2629228;54;20177;-77
2021/08/30 05:52:40;;;;;;;32.30;26.90;;;17.30;99.90;;;;;;2629566;46;20167;-77
2021/08/30 05:55:10;;;;;;;31.67;27.70;;;17.30;99.90;;;;;;2629428;47;20144;-78
2021/08/30 05:57:41;;;;;;;31.45;27.23;;;17.30;99.90;;;;;;2628752;54;20153;-77
2021/08/30 06:00:11;;;;;;;28.25;25.23;;;17.30;99.90;;;;;;2629165;47;20230;-78
2021/08/30 06:02:40;;;;;;;28.35;25.33;;;17.30;99.90;;;;;;2630031;47;20157;-78
2021/08/30 08:00:49;;;;;;;24.30;21.73;;;17.30;99.90;;;;;;2616233;39;20661;-39
2021/08/30 08:03:18;;;;;;;26.20;23.77;;;17.30;99.90;;;;;;2617130;39;20535;-39
2021/08/30 08:05:47;;;;;;;27.38;24.52;;;17.30;99.90;;;;;;2617174;39;20574;-40
2021/08/30 08:08:16;;;;;;;24.17;21.48;;;17.50;99.90;;;;;;2616858;54;20730;-38
2021/08/30 08:10:45;;;;;;;22.35;20.05;;;17.60;99.90;;;;;;2615883;54;20137;-40
2021/08/30 08:13:15;;;;;;;23.52;21.23;;;17.60;99.90;;;;;;2617086;54;20231;-40
2021/08/30 08:15:46;;;;;;;22.90;20.60;;;17.90;99.90;;;;;;2615374;47;20152;-39
2021/08/30 08:18:17;;;;;;;23.40;21.13;;;18.00;99.90;;;;;;2616630;54;20148;-39
2021/08/30 08:20:46;;;;;;;21.45;19.35;;;18.20;99.90;;;;;;2616028;54;20154;-40
2021/08/30 08:23:15;;;;;;;21.15;19.02;;;18.30;99.90;;;;;;2616569;47;20176;-38
2021/08/30 08:25:43;;;;;;;21.15;19.20;;;18.30;99.90;;;;;;2616315;54;20164;-39
2021/08/30 08:28:12;;;;;;;18.55;16.75;;;18.50;99.90;;;;;;2616461;54;20148;-41
2021/08/30 08:30:41;;;;;;;18.50;16.73;;;18.30;99.90;;;;;;2616438;54;20149;-39
2021/08/30 08:33:10;;;;;;;19.48;17.60;;;18.30;99.90;;;;;;2616788;47;20168;-39
2021/08/30 08:35:42;;;;;;;18.92;17.15;;;18.40;99.90;;;;;;2616940;47;20145;-41
2021/08/30 08:38:11;;;;;;;18.50;16.67;;;18.40;99.90;;;;;;2617343;39;20558;-40
2021/08/30 08:40:41;;;;;;;17.27;15.65;;;18.40;99.90;;;;;;2616938;54;20160;-39
2021/08/30 08:43:13;;;;;;;17.00;14.38;;;18.30;99.90;;;;;;2616897;54;20177;-40
2021/08/30 08:45:43;;;;;;;14.93;13.30;;;18.20;99.90;;;;;;2616360;54;20156;-39
2021/08/30 08:48:12;;;;;;;16.20;14.77;;;18.10;99.90;;;;;;2616397;54;20152;-39
2021/08/30 08:50:44;;;;;;;15.88;14.38;;;18.30;99.90;;;;;;2616128;54;20709;-39
2021/08/30 08:53:13;;;;;;;15.23;13.82;;;18.10;99.90;;;;;;2616246;54;20168;-39
2021/08/30 08:55:42;;;;;;;17.35;15.68;;;18.30;99.90;;;;;;2616573;54;20165;-39
2021/08/30 08:58:12;;;;;;;16.50;14.75;;;18.20;99.90;;;;;;2617397;31;20648;-39
2021/08/30 09:00:43;;;;;;;15.18;13.65;;;18.30;99.90;;;;;;2616640;54;20139;-39
2021/08/30 09:03:17;;;;;;;17.25;15.57;;;18.20;99.90;;;;;;2616653;54;20161;-39
2021/08/30 09:05:49;;;;;;;18.73;16.90;;;18.20;99.90;;;;;;2616599;54;20142;-41
2021/08/30 09:08:36;;;;;;;16.58;14.85;;;18.40;99.90;;;;;;2616882;39;20595;-40
2021/08/30 09:11:05;;;;;;;14.05;12.75;;;18.50;99.90;;;;;;2616310;54;20743;-40
2021/08/30 09:13:34;;;;;;;13.52;12.13;;;18.70;99.90;;;;;;2616764;54;20173;-39
2021/08/30 09:16:03;;;;;;;11.88;10.45;;;18.80;99.90;;;;;;2616101;54;20145;-40
2021/08/30 09:18:34;;;;;;;10.35;9.40;;;18.80;99.90;;;;;;2616378;54;20141;-40
2021/08/30 09:21:13;;;;;;;10.98;9.82;;;18.60;99.90;;;;;;2616595;54;20147;-39
2021/08/30 09:23:43;;;;;;;9.43;8.57;;;18.50;99.90;;;;;;2616351;54;20203;-39
2021/08/30 09:26:18;;;;;;;9.80;8.88;;;18.60;99.90;;;;;;2616362;54;20141;-39
2021/08/30 09:28:54;;;;;;;8.57;7.65;;;18.70;99.90;;;;;;2615950;54;20681;-40
2021/08/30 09:31:24;;;;;;;9.27;8.38;;;18.80;99.90;;;;;;2616709;54;20141;-39
2021/08/30 09:33:54;;;;;;;9.38;8.43;;;18.90;99.90;;;;;;2616531;54;20281;-40
2021/08/30 09:36:26;;;;;;;8.73;7.93;;;19.00;99.90;;;;;;2616594;54;20141;-39
2021/08/30 09:38:57;;;;;;;9.85;8.98;;;19.10;99.90;;;;;;2616582;50;20141;-41
2021/08/30 09:41:26;;;;;;;8.70;7.90;;;19.20;99.90;;;;;;2616748;54;20133;-39
2021/08/30 09:44:03;;;;;;;8.50;7.57;;;19.20;99.90;;;;;;2616696;54;20173;-41
2021/08/30 09:46:32;;;;;;;8.27;7.50;;;19.00;99.90;;;;;;2616476;54;20734;-39
2021/08/30 09:49:07;;;;;;;9.13;7.88;;;19.20;99.90;;;;;;2616592;54;20147;-39
2021/08/30 09:51:42;;;;;;;10.40;9.05;;;19.30;99.90;;;;;;2617311;39;20607;-39
2021/08/30 09:54:13;;;;;;;9.40;8.50;;;19.40;99.90;;;;;;2616642;54;20157;-41
2021/08/30 09:56:42;;;;;;;9.27;7.78;;;19.40;99.90;;;;;;2616081;54;20145;-39
2021/08/30 09:59:12;;;;;;;9.68;8.70;;;19.20;99.90;;;;;;2616305;54;20155;-41
2021/08/30 10:01:42;;;;;;;11.70;8.23;;;19.20;99.90;;;;;;2616437;54;20133;-38
2021/08/30 10:04:12;;;;;;;8.98;8.18;;;19.20;99.90;;;;;;2615901;54;20169;-40
2021/08/30 10:06:44;;;;;;;8.52;7.72;;;19.30;99.90;;;;;;2616044;54;20149;-39
2021/08/30 10:09:14;;;;;;;8.73;7.93;;;19.40;99.90;;;;;;2616064;54;20164;-40
2021/08/30 10:11:45;;;;;;;7.88;7.18;;;19.60;99.90;;;;;;2615987;54;20141;-39
2021/08/30 10:14:18;;;;;;;8.10;7.32;;;19.60;99.90;;;;;;2616276;54;20172;-39
2021/08/30 10:16:48;;;;;;;9.05;8.07;;;19.80;99.90;;;;;;2616011;54;20146;-41
2021/08/30 10:19:27;;;;;;;9.60;8.57;;;19.80;99.90;;;;;;2616033;47;20149;-41
2021/08/30 10:22:00;;;;;;;9.15;8.30;;;19.70;99.90;;;;;;2615971;47;20148;-40
2021/08/30 10:24:30;;;;;;;9.20;8.18;;;19.50;99.90;;;;;;2615951;47;20179;-40
2021/08/30 10:27:08;;;;;;;9.25;8.38;;;19.30;99.90;;;;;;2615978;47;20145;-40
2021/08/30 10:29:39;;;;;;;8.75;7.88;;;19.10;99.90;;;;;;2616025;54;20146;-40
2021/08/30 10:32:10;;;;;;;8.85;8.07;;;19.10;99.90;;;;;;2616163;54;20146;-41
2021/08/30 10:34:41;;;;;;;10.68;9.05;;;18.90;99.90;;;;;;2616232;47;20153;-39
2021/08/30 10:37:20;;;;;;;8.45;7.75;;;19.00;99.90;;;;;;2616165;54;20671;-40
2021/08/30 10:39:54;;;;;;;9.18;8.27;;;19.10;99.90;;;;;;2615986;54;20246;-39
2021/08/30 10:42:24;;;;;;;10.63;9.30;;;19.00;99.90;;;;;;2615864;54;20137;-40
2021/08/30 10:44:55;;;;;;;10.23;9.23;;;19.10;99.90;;;;;;2615836;54;20145;-41
2021/08/30 10:47:26;;;;;;;9.48;8.52;;;19.00;99.90;;;;;;2616349;47;20141;-39
2021/08/30 10:49:56;;;;;;;12.45;9.75;;;18.90;99.90;;;;;;2616206;54;20157;-40
2021/08/30 10:52:27;;;;;;;9.27;8.45;;;18.90;99.90;;;;;;2616120;54;20148;-41
2021/08/30 10:54:57;;;;;;;9.30;8.35;;;19.00;99.90;;;;;;2615924;54;20140;-39
2021/08/30 10:57:35;;;;;;;10.18;9.18;;;19.00;99.90;;;;;;2616065;54;20146;-40
2021/08/30 11:00:06;;;;;;;10.30;8.43;;;18.90;99.90;;;;;;2616052;54;20141;-40
2021/08/30 11:02:41;;;;;;;9.82;8.80;;;19.00;99.90;;;;;;2616277;49;20173;-41
2021/08/30 11:05:11;;;;;;;9.02;8.23;;;18.80;99.90;;;;;;2615175;54;20148;-40
2021/08/30 11:07:42;;;;;;;8.95;8.00;;;18.90;99.90;;;;;;2616169;54;20145;-41
2021/08/30 11:10:12;;;;;;;7.85;7.15;;;18.80;99.90;;;;;;2616531;54;20141;-40
2021/08/30 11:12:44;;;;;;;8.88;7.53;;;19.00;99.90;;;;;;2616743;54;20698;-41
2021/08/30 11:15:13;;;;;;;12.57;8.82;;;18.90;99.90;;;;;;2616585;54;20195;-42
2021/08/30 11:17:42;;;;;;;7.95;7.15;;;18.90;99.90;;;;;;2617071;31;20610;-40
2021/08/30 11:20:12;;;;;;;7.93;7.22;;;19.00;99.90;;;;;;2616871;54;20169;-39
2021/08/30 11:22:44;;;;;;;8.75;7.90;;;18.80;99.90;;;;;;2617186;54;20160;-41
2021/08/30 11:25:12;;;;;;;9.48;8.48;;;18.70;99.90;;;;;;2615936;54;20138;-42
2021/08/30 11:27:41;;;;;;;9.57;7.65;;;18.70;99.90;;;;;;2615212;46;20164;-40
2021/08/30 11:30:13;;;;;;;8.25;7.55;;;18.70;99.90;;;;;;2616506;47;20172;-39
2021/08/30 11:32:43;;;;;;;8.20;7.40;;;18.70;99.90;;;;;;2618208;54;20207;-40
2021/08/30 11:35:17;;;;;;;7.85;7.25;;;18.80;99.90;;;;;;2619173;54;20138;-40
2021/08/30 11:37:48;;;;;;;8.65;7.78;;;18.70;99.90;;;;;;2617034;47;20157;-40
2021/08/30 11:40:17;;;;;;;11.48;8.60;;;18.60;99.90;;;;;;2617016;54;20138;-39
2021/08/30 11:42:46;;;;;;;10.18;9.18;;;18.60;99.90;;;;;;2616894;54;20180;-41
2021/08/30 11:45:16;;;;;;;8.48;7.68;;;18.70;99.90;;;;;;2616842;54;20144;-40
2021/08/30 11:47:46;;;;;;;8.32;7.63;;;18.80;99.90;;;;;;2616629;54;20694;-39
2021/08/30 11:50:16;;;;;;;8.32;7.53;;;18.70;99.90;;;;;;2616418;54;20141;-39
2021/08/30 11:52:44;;;;;;;12.20;8.00;;;18.70;99.90;;;;;;2616544;47;20173;-40
2021/08/30 11:55:21;;;;;;;7.80;7.13;;;18.70;99.90;;;;;;2616079;54;20153;-40
2021/08/30 11:57:52;;;;;;;8.57;7.68;;;18.70;99.90;;;;;;2616413;47;20956;-39
2021/08/30 12:00:23;;;;;;;7.53;6.88;;;19.00;99.90;;;;;;2616176;54;20156;-40
2021/08/30 12:02:53;;;;;;;7.05;6.35;;;19.30;99.90;;;;;;2615722;54;20152;-39
2021/08/30 12:05:22;;;;;;;7.82;7.13;;;19.20;99.90;;;;;;2616538;54;20142;-40
2021/08/30 12:07:55;;;;;;;7.75;7.05;;;19.30;99.90;;;;;;2616433;54;20149;-40
2021/08/30 12:10:29;;;;;;;8.93;7.93;;;19.50;99.90;;;;;;2616374;54;20141;-40
2021/08/30 12:13:20;;;;;;;7.93;7.07;;;19.40;99.90;;;;;;2616607;54;21090;-40
2021/08/30 12:15:49;;;;;;;8.40;7.68;;;19.50;99.90;;;;;;2616943;39;20585;-39
2021/08/30 12:18:19;;;;;;;9.30;7.97;;;19.30;99.90;;;;;;2616316;54;20157;-40
2021/08/30 12:20:48;;;;;;;8.15;7.20;;;19.50;99.90;;;;;;2616070;54;20167;-40
2021/08/30 12:23:20;;;;;;;8.45;7.60;;;19.50;99.90;;;;;;2615548;54;20188;-41
2021/08/30 12:25:54;;;;;;;7.45;6.75;;;19.20;99.90;;;;;;2616296;54;20141;-40
2021/08/30 12:28:25;;;;;;;8.85;7.82;;;19.20;99.90;;;;;;2616262;54;20201;-41
2021/08/30 12:30:54;;;;;;;7.63;6.82;;;19.00;99.90;;;;;;2616431;47;20173;-39
2021/08/30 12:33:30;;;;;;;7.47;6.78;;;19.20;99.90;;;;;;2616415;54;20177;-40
2021/08/30 12:36:01;;;;;;;7.82;7.10;;;19.20;99.90;;;;;;2616544;54;20172;-40
2021/08/30 12:38:33;;;;;;;9.10;7.60;;;19.20;99.90;;;;;;2616475;54;20237;-40
2021/08/30 12:41:06;;;;;;;6.93;6.20;;;19.30;99.90;;;;;;2617511;31;20648;-40
2021/08/30 12:43:35;;;;;;;8.25;7.45;;;19.80;99.90;;;;;;2616690;54;20149;-39
2021/08/30 12:46:07;;;;;;;7.13;6.40;;;20.10;99.90;;;;;;2616470;54;20693;-40
2021/08/30 12:48:35;;;;;;;7.65;6.70;;;20.10;99.90;;;;;;2616431;54;20146;-40
2021/08/30 12:51:04;;;;;;;7.78;7.05;;;20.50;99.90;;;;;;2616200;47;20158;-39
2021/08/30 12:53:33;;;;;;;7.72;6.97;;;20.60;99.90;;;;;;2616413;54;20195;-39
2021/08/30 12:56:05;;;;;;;8.70;5.88;;;20.90;99.90;;;;;;2616150;54;20714;-41
2021/08/30 12:58:34;;;;;;;8.85;6.10;;;20.80;99.90;;;;;;2616499;54;20154;-40
2021/08/30 13:01:03;;;;;;;6.78;6.25;;;20.90;99.90;;;;;;2616666;54;20142;-40
2021/08/30 13:03:32;;;;;;;6.18;5.57;;;20.80;99.90;;;;;;2616526;54;20317;-41
2021/08/30 13:06:01;;;;;;;5.72;5.22;;;20.60;99.90;;;;;;2616424;54;20256;-41
2021/08/30 13:08:30;;;;;;;7.63;6.90;;;20.20;99.90;;;;;;2616466;54;20281;-41
2021/08/30 13:10:59;;;;;;;7.28;6.57;;;20.10;99.90;;;;;;2616478;54;20168;-39
2021/08/30 13:13:30;;;;;;;6.82;6.20;;;20.10;99.90;;;;;;2616535;54;20200;-40
2021/08/30 13:16:00;;;;;;;6.30;5.80;;;20.10;99.90;;;;;;2616560;54;20134;-40
2021/08/30 13:18:29;;;;;;;7.70;6.43;;;19.90;99.90;;;;;;2616755;39;20809;-39
2021/08/30 13:20:57;;;;;;;8.35;7.03;;;20.00;99.90;;;;;;2616590;54;20144;-40
2021/08/30 13:23:26;;;;;;;7.55;6.72;;;20.10;99.90;;;;;;2616525;54;20173;-41
2021/08/30 13:25:55;;;;;;;6.40;5.90;;;20.00;99.90;;;;;;2616699;39;20546;-40
2021/08/30 13:28:24;;;;;;;6.50;5.90;;;20.30;99.90;;;;;;2615665;47;20204;-39
2021/08/30 13:30:56;;;;;;;6.10;5.50;;;20.60;99.90;;;;;;2616594;54;20184;-39
2021/08/30 13:33:26;;;;;;;6.25;5.63;;;20.70;99.90;;;;;;2616759;47;20165;-39
2021/08/30 13:35:54;;;;;;;5.80;5.20;;;20.70;99.90;;;;;;2616287;54;20146;-39
2021/08/30 13:38:23;;;;;;;6.53;5.60;;;20.80;99.90;;;;;;2615819;54;20146;-40
2021/08/30 13:40:52;;;;;;;5.65;5.07;;;20.80;99.90;;;;;;2616392;54;20141;-39
2021/08/30 13:43:21;;;;;;;6.13;5.40;;;20.60;99.90;;;;;;2616091;47;20177;-41
2021/08/30 13:45:50;;;;;;;5.47;5.00;;;20.20;99.90;;;;;;2616013;54;20153;-40
2021/08/30 13:48:22;;;;;;;6.28;5.68;;;20.00;99.90;;;;;;2615887;54;20157;-40
2021/08/30 13:50:51;;;;;;;6.85;6.25;;;19.80;99.90;;;;;;2616235;54;20148;-41
2021/08/30 13:53:20;;;;;;;5.90;5.40;;;20.10;99.90;;;;;;2615913;54;20281;-40
2021/08/30 13:55:49;;;;;;;6.47;5.88;;;20.40;99.90;;;;;;2615980;54;20138;-40
2021/08/30 13:58:19;;;;;;;6.07;5.28;;;20.60;99.90;;;;;;2616019;54;20162;-39
2021/08/30 14:00:48;;;;;;;5.65;5.05;;;20.90;99.90;;;;;;2616224;54;20145;-39
2021/08/30 14:03:18;;;;;;;5.72;5.22;;;21.00;99.90;;;;;;2615559;51;20173;-40
2021/08/30 14:05:49;;;;;;;7.32;4.82;;;20.90;99.90;;;;;;2614849;54;20142;-41
2021/08/30 14:08:18;;;;;;;7.18;6.47;;;21.00;99.90;;;;;;2615215;54;20145;-40
2021/08/30 14:10:47;;;;;;;8.48;6.03;;;20.90;99.90;;;;;;2616114;54;20169;-41
2021/08/30 14:13:16;;;;;;;5.95;5.32;;;21.60;99.90;;;;;;2617361;54;20243;-39
2021/08/30 14:15:45;;;;;;;7.55;5.60;;;22.10;99.90;;;;;;2617651;54;20274;-39
2021/08/30 14:18:14;;;;;;;7.70;5.75;;;21.80;99.90;;;;;;2616128;54;20134;-39
2021/08/30 14:20:43;;;;;;;6.65;6.10;;;21.50;99.90;;;;;;2617163;54;20141;-38
2021/08/30 14:23:14;;;;;;;6.82;6.13;;;20.90;99.90;;;;;;2616891;54;20187;-41
2021/08/30 14:25:43;;;;;;;6.20;4.82;;;20.70;99.90;;;;;;2616452;54;20156;-39
2021/08/30 14:28:12;;;;;;;7.80;4.90;;;20.70;99.90;;;;;;2616415;54;20149;-42
2021/08/30 14:30:42;;;;;;;6.10;5.50;;;20.60;99.90;;;;;;2616829;39;20580;-39
2021/08/30 14:33:11;;;;;;;6.07;5.57;;;20.70;99.90;;;;;;2616408;54;20164;-39
2021/08/30 14:35:40;;;;;;;5.55;4.95;;;20.90;99.90;;;;;;2616004;54;20149;-41
2021/08/30 14:38:09;;;;;;;5.68;5.00;;;21.30;99.90;;;;;;2616292;54;20149;-40
2021/08/30 14:40:43;;;;;;;5.25;4.55;;;22.20;99.90;;;;;;2616412;54;20150;-39
2021/08/30 14:43:11;;;;;;;5.80;4.85;;;22.50;99.90;;;;;;2616787;39;20683;-40
2021/08/30 14:45:41;;;;;;;5.32;4.93;;;22.50;99.90;;;;;;2617011;54;20706;-40
2021/08/30 14:48:09;;;;;;;5.07;4.60;;;22.60;99.90;;;;;;2616984;54;20156;-40
2021/08/30 14:50:38;;;;;;;6.63;4.78;;;22.60;99.90;;;;;;2616961;54;20126;-39